Thursday, April 26, 2018, 5:37 AM EDT
Back to Local

KIWI, Wiscasset Municipal Airport

Location: Wiscasset, ME, United States Lat: 43.967
Local Time: 5:37 AM EDT ( 9:37 GMT) Lon: -69.717
Time Zone: US/Eastern Elev: 68 ft

Show me the last for .
Show Decoded

2018-04-26 05:19 METAR KIWI 260919Z AUTO VRB05KT 2SM -RA BR OVC004 09/09 A2964 RMK AO2
                 RAB0855E10B15 P0001 T00890089 =
2018-04-26 05:10 METAR KIWI 260910Z AUTO 16007KT 3SM BR OVC003 09/09 A2964 RMK AO2 RAB0855E10
                 P0001 T00890089 =
2018-04-26 04:53 METAR KIWI 260853Z AUTO VRB03KT 2 1/2SM BR OVC003 09/09 A2964 RMK AO2 RAE39
                 SLP038 P0003 60021 T00940094 58022 =
2018-04-26 04:16 METAR KIWI 260816Z AUTO 18004KT 2 1/2SM -RA BR OVC003 09/09 A2966 RMK AO2 P0002
                 T00940094 =
2018-04-26 04:09 METAR KIWI 260809Z AUTO 18006KT 3SM -RA BR OVC004 09/09 A2966 RMK AO2 P0001
                 T00940094 =
2018-04-26 03:53 METAR KIWI 260753Z AUTO VRB06KT 5SM -RA BR OVC005 09/09 A2967 RMK AO2 SLP047
                 P0010 T00940094 =
2018-04-26 03:28 METAR KIWI 260728Z AUTO VRB03KT 6SM -RA BR BKN005 OVC009 09/09 A2968 RMK AO2
                 P0005 T00940094 =
2018-04-26 02:53 METAR KIWI 260653Z AUTO 20003KT 6SM -RA BR OVC004 09/09 A2969 RMK AO2 SLP052
                 P0008 T00940094 =
2018-04-26 01:53 METAR KIWI 260553Z AUTO VRB03KT 5SM -RA BR OVC004 09/09 A2971 RMK AO2 SLP060
                 P0008 60083 T00940094 10111 20094 58032 =
2018-04-26 01:39 METAR KIWI 260539Z AUTO 14003KT 7SM -RA OVC005 09/09 A2971 RMK AO2 P0006
                 T00940094 =
2018-04-26 00:53 METAR KIWI 260453Z AUTO VRB03KT 6SM -RA BR OVC004 10/10 A2974 RMK AO2 SLP072
                 P0006 T01000100 401330083 =
2018-04-25 23:53 METAR KIWI 260353Z AUTO 20006KT 10SM -RA OVC004 10/10 A2977 RMK AO2 SLP082 P0004
                 T01000100 =
2018-04-25 23:23 METAR KIWI 260323Z AUTO VRB05KT 7SM -RA OVC004 10/10 A2979 RMK AO2 P0002
                 T01000100 =
2018-04-25 22:53 METAR KIWI 260253Z AUTO 17008KT 130V210 7SM -RA OVC005 10/10 A2980 RMK AO2
                 SLP092 P0014 60065 T01000100 58024 =
2018-04-25 21:53 METAR KIWI 260153Z AUTO 13007G19KT 010V170 4SM -RA BR OVC006 11/11 A2983 RMK AO2
                 SLP103 P0024 T01060106 =
2018-04-25 21:20 METAR KIWI 260120Z AUTO 12008G19KT 3SM RA BR BKN005 OVC010 11/11 A2985 RMK AO2
                 P0017 T01110111 =
2018-04-25 21:14 METAR KIWI 260114Z AUTO 12008G17KT 080V150 1 3/4SM +RA BR OVC006 11/11 A2986 RMK
                 AO2 P0015 T01110111 =
2018-04-25 20:53 METAR KIWI 260053Z AUTO 11007G17KT 2 1/2SM +RA BR OVC005 11/11 A2987 RMK AO2
                 SLP115 P0027 T01060106 =
2018-04-25 20:48 METAR KIWI 260048Z AUTO 12009G15KT 100V170 2 1/2SM RA BR OVC005 10/10 A2988 RMK
                 AO2 P0024 =
2018-04-25 19:53 METAR KIWI 252353Z AUTO 11008G15KT 6SM -RA BR OVC005 11/10 A2990 RMK AO2 SLP126
                 P0017 60041 T01060100 10122 20100 56023 =
2018-04-25 18:53 METAR KIWI 252253Z AUTO 10008KT 4SM -RA BR OVC005 11/11 A2994 RMK AO2 CIG
                 004V010 SLP137 P0017 T01060106 =
2018-04-25 18:49 METAR KIWI 252249Z AUTO 11006KT 4SM -RA BR OVC005 11/11 A2994 RMK AO2 CIG
                 003V010 P0017 =
2018-04-25 18:35 METAR KIWI 252235Z AUTO 11008KT 2 1/2SM RA BR OVC005 11/11 A2994 RMK AO2 P0014
                 T01060106 =
2018-04-25 18:27 METAR KIWI 252227Z AUTO VRB06KT 1 3/4SM RA BR OVC005 11/11 A2995 RMK AO2 P0010
                 T01060106 =
2018-04-25 18:08 METAR KIWI 252208Z AUTO VRB04KT 2 1/2SM RA BR OVC005 10/10 A2996 RMK AO2 P0004
                 T01000100 =
2018-04-25 17:53 METAR KIWI 252153Z AUTO VRB06KT 4SM -RA BR OVC005 10/10 A2997 RMK AO2 SLP150
                 P0006 T01000100 =
2018-04-25 17:00 METAR KIWI 252100Z AUTO 15008KT 100V200 5SM -RA BR OVC007 11/10 A3000 RMK AO2
                 CIG 006V012 P0000 T01060100 =
2018-04-25 16:53 METAR KIWI 252053Z AUTO 12006G14KT 5SM -RA BR OVC010 11/10 A3000 RMK AO2
                 RAB04E13B29 CIG 007V014 SLP159 P0001 60001 T01060100 56028 =
2018-04-25 16:37 METAR KIWI 252037Z AUTO 15007KT 070V180 5SM -RA BR OVC012 11/10 A3001 RMK AO2
                 RAB04E13B29 P0001 T01110100 =
2018-04-25 16:19 METAR KIWI 252019Z AUTO 16008G18KT 120V190 10SM OVC015 12/10 A3001 RMK AO2
                 RAB04E13 P0000 T01220100 =
2018-04-25 15:53 METAR KIWI 251953Z AUTO 14007KT 100V170 10SM OVC014 12/09 A3002 RMK AO2 SLP167
                 T01170094 =
2018-04-25 15:06 METAR KIWI 251906Z AUTO 18007G16KT 150V210 10SM BKN015 BKN041 OVC075 12/09 A3005
                 RMK AO2 T01170094 =
2018-04-25 14:53 METAR KIWI 251853Z AUTO VRB06KT 10SM SCT015 BKN049 OVC080 12/10 A3006 RMK AO2
                 RAB1755E07 SLP177 P0000 T01220100 =
2018-04-25 14:39 METAR KIWI 251839Z AUTO 10SM SCT013 BKN039 OVC055 12/10 A3006 RMK AO2 RAB1755E07
                 P0000 T01170100 =
2018-04-25 13:53 METAR KIWI 251753Z AUTO VRB03KT 10SM FEW013 OVC021 12/11 A3008 RMK AO2 RAB16E35
                 SLP186 P0001 60001 T01170106 10133 20094 57027 =
2018-04-25 12:53 METAR KIWI 251653Z AUTO 17007KT 10SM SCT017 BKN023 OVC050 13/09 A3011 RMK AO2
                 SLP195 T01280089 =
2018-04-25 11:53 METAR KIWI 251553Z AUTO 16004KT 10SM BKN017 OVC028 11/08 A3014 RMK AO2 SLP205
                 T01110083 =
2018-04-25 11:33 METAR KIWI 251533Z AUTO 17004KT 10SM FEW020 BKN026 OVC033 11/08 A3015 RMK AO2
                 T01110083 =
2018-04-25 10:53 METAR KIWI 251453Z AUTO 19005KT 10SM SCT032 OVC046 11/08 A3016 RMK AO2 RAB22E28
                 SLP214 P0000 60000 T01110083 58009 =
2018-04-25 09:53 METAR KIWI 251353Z AUTO 18005KT 10SM BKN048 OVC060 11/07 A3018 RMK AO2 SLP219
                 T01110072 =
2018-04-25 08:53 METAR KIWI 251253Z AUTO VRB03KT 10SM BKN049 OVC060 10/06 A3018 RMK AO2 SLP221
                 T01000056 =
2018-04-25 07:53 METAR KIWI 251153Z AUTO VRB04KT 10SM BKN080 10/05 A3019 RMK AO2 SLP223 T01000050
                 10100 20083 50001 =
2018-04-25 06:53 METAR KIWI 251053Z AUTO 20004KT 10SM SCT055 OVC075 09/04 A3020 RMK AO2 SLP226
                 T00940039 =
2018-04-25 05:53 METAR KIWI 250953Z AUTO VRB03KT 10SM BKN041 09/03 A3018 RMK AO2 SLP220 T00890033
                 =

Support USWX by starting your Amazon purchase here.